Time;durP1;ratioP1;P1;durP2;ratioP2;P2;SDS_P1;SDS_P2;PMS_P1;PMS_P2;Temp;Humidity;BMP_temperature;BMP_pressure;BME280_temperature;BME280_humidity;BME280_pressure;Samples;Min_cycle;Max_cycle;Signal;HPM_P1;HPM_P2
2021/07/10 00:02:26;;;;;;;74.18;68.15;;;;;;;18.23;100.00;101254.47;5115448;27;20100;-78
2021/07/10 00:04:52;;;;;;;80.05;73.75;;;;;;;18.13;100.00;101261.56;5120850;27;20499;-78
2021/07/10 00:07:19;;;;;;;69.45;64.00;;;;;;;18.19;100.00;101256.03;5119936;27;20055;-78
2021/07/10 00:09:46;;;;;;;74.40;68.63;;;;;;;18.22;100.00;101252.03;5122806;28;20121;-79
2021/07/10 00:12:13;;;;;;;72.13;65.72;;;;;;;18.11;100.00;101256.41;5132250;27;20217;-78
2021/07/10 00:14:39;;;;;;;66.18;60.95;;;;;;;18.10;100.00;101256.66;5118792;27;20048;-82
2021/07/10 00:17:06;;;;;;;82.32;76.13;;;;;;;17.88;100.00;101246.59;5119984;28;20039;-78
2021/07/10 00:19:34;;;;;;;81.95;75.47;;;;;;;17.70;100.00;101247.59;5121183;28;20054;-79
2021/07/10 00:22:01;;;;;;;77.35;71.07;;;;;;;17.69;100.00;101251.34;5118850;28;20517;-79
2021/07/10 00:24:30;;;;;;;80.65;74.18;;;;;;;17.24;100.00;101259.31;5123039;28;20051;-78
2021/07/10 00:26:57;;;;;;;82.28;75.68;;;;;;;17.23;100.00;101261.16;5130854;28;20043;-78
2021/07/10 00:29:24;;;;;;;95.38;87.45;;;;;;;17.25;100.00;101250.22;5120894;28;20047;-78
2021/07/10 00:31:51;;;;;;;88.93;82.03;;;;;;;17.69;100.00;101250.53;5118042;28;20442;-79
2021/07/10 00:34:18;;;;;;;81.85;75.45;;;;;;;17.67;100.00;101248.09;5115017;28;20139;-78
2021/07/10 00:36:47;;;;;;;91.25;84.50;;;;;;;17.82;100.00;101244.88;5120568;28;20059;-78
2021/07/10 00:39:13;;;;;;;91.25;84.55;;;;;;;17.55;100.00;101244.59;5118048;28;20051;-78
2021/07/10 00:41:40;;;;;;;91.10;83.72;;;;;;;17.45;100.00;101241.72;5103340;28;20446;-78
2021/07/10 00:44:07;;;;;;;72.93;67.00;;;;;;;17.39;100.00;101248.88;5114213;28;20059;-78
2021/07/10 00:46:34;;;;;;;72.45;66.63;;;;;;;17.54;100.00;101235.75;5115606;28;20051;-78
2021/07/10 00:49:00;;;;;;;79.72;73.38;;;;;;;17.55;100.00;101237.38;5118391;28;20051;-79
2021/07/10 00:51:27;;;;;;;79.80;73.75;;;;;;;17.47;100.00;101232.38;5113950;28;20124;-79
2021/07/10 00:53:55;;;;;;;90.60;83.82;;;;;;;17.50;100.00;101234.59;5118228;28;20124;-78
2021/07/10 00:56:23;;;;;;;78.60;72.50;;;;;;;17.48;100.00;101230.50;5116863;27;20047;-79
2021/07/10 00:58:50;;;;;;;76.10;70.18;;;;;;;17.48;100.00;101230.50;5115758;27;20483;-79
2021/07/10 01:01:17;;;;;;;77.55;71.75;;;;;;;17.57;100.00;101226.38;5126872;27;20127;-78
2021/07/10 01:03:45;;;;;;;69.20;63.50;;;;;;;17.42;100.00;101218.03;5126740;27;20063;-78
2021/07/10 01:06:13;;;;;;;76.53;70.47;;;;;;;17.41;100.00;101214.56;5119847;27;20047;-78
2021/07/10 01:08:41;;;;;;;95.55;88.15;;;;;;;16.91;100.00;101207.94;5115771;27;20559;-78
2021/07/10 01:11:10;;;;;;;104.72;96.63;;;;;;;16.88;100.00;101213.75;5128576;27;20453;-78
2021/07/10 01:13:37;;;;;;;96.80;89.43;;;;;;;17.23;100.00;101218.22;5129618;27;20051;-78
2021/07/10 01:16:05;;;;;;;93.35;86.35;;;;;;;17.22;100.00;101202.38;5126425;27;20479;-78
2021/07/10 01:18:32;;;;;;;85.60;78.90;;;;;;;17.09;100.00;101206.94;5124642;27;20040;-78
2021/07/10 01:21:00;;;;;;;88.63;81.68;;;;;;;17.12;100.00;101203.78;5117630;27;20475;-79
2021/07/10 01:23:27;;;;;;;82.40;76.13;;;;;;;17.09;100.00;101195.38;5123998;27;20117;-79
2021/07/10 01:25:54;;;;;;;74.90;69.03;;;;;;;17.15;100.00;101205.16;5128233;27;20104;-79
2021/07/10 01:28:21;;;;;;;76.97;70.97;;;;;;;17.11;100.00;101190.59;5131377;27;20043;-79
2021/07/10 01:30:49;;;;;;;77.47;71.07;;;;;;;16.95;100.00;101194.84;5124993;27;20061;-79
2021/07/10 01:33:17;;;;;;;83.78;77.28;;;;;;;16.96;100.00;101198.34;5119144;27;20468;-78
2021/07/10 01:35:43;;;;;;;80.38;74.38;;;;;;;17.08;100.00;101201.81;5126030;27;20055;-78
2021/07/10 01:38:13;;;;;;;80.53;74.38;;;;;;;17.12;100.00;101192.22;5120744;27;22068;-79
2021/07/10 01:40:42;;;;;;;76.93;71.03;;;;;;;16.92;100.00;101187.28;5126950;27;20055;-78
2021/07/10 01:43:10;;;;;;;72.53;66.78;;;;;;;16.94;100.00;101187.84;5132666;27;20388;-79
2021/07/10 01:45:37;;;;;;;73.55;67.43;;;;;;;16.72;100.00;101187.63;5124501;27;20059;-78
2021/07/10 01:48:06;;;;;;;77.75;71.15;;;;;;;16.75;100.00;101181.78;5112716;27;20479;-78
2021/07/10 01:50:33;;;;;;;77.30;71.25;;;;;;;16.77;100.00;101181.59;5124492;27;20127;-78
2021/07/10 01:53:00;;;;;;;83.13;76.70;;;;;;;16.97;100.00;101175.81;5119414;27;20051;-79
2021/07/10 01:55:29;;;;;;;83.22;76.43;;;;;;;16.58;100.00;101173.66;5113784;27;20043;-78
2021/07/10 01:57:57;;;;;;;91.93;84.68;;;;;;;16.40;100.00;101177.28;5118644;27;20134;-79
2021/07/10 02:03:05;;;;;;;70.70;64.80;;;;;;;16.59;100.00;101177.16;5071722;28;20068;-78
2021/07/10 02:05:32;;;;;;;72.32;66.18;;;;;;;16.75;100.00;101168.38;5081537;28;20125;-78
2021/07/10 02:08:00;;;;;;;80.88;74.22;;;;;;;16.31;100.00;101176.00;5083645;28;20048;-77
2021/07/10 02:10:30;;;;;;;81.38;74.82;;;;;;;16.20;100.00;101179.47;5083421;28;20121;-78
2021/07/10 02:13:00;;;;;;;85.30;78.60;;;;;;;16.20;100.00;101172.25;5084451;28;20044;-78
2021/07/10 02:15:27;;;;;;;83.70;77.05;;;;;;;16.22;100.00;101183.56;5080864;28;20048;-78
2021/07/10 02:17:54;;;;;;;71.63;65.72;;;;;;;16.39;100.00;101186.34;5082669;28;20113;-78
2021/07/10 02:20:28;;;;;;;79.07;72.68;;;;;;;16.00;100.00;101177.09;5082440;28;20101;-78
2021/07/10 02:23:03;;;;;;;79.82;73.30;;;;;;;16.18;100.00;101184.22;5081736;28;20109;-78
2021/07/10 02:25:31;;;;;;;95.22;87.75;;;;;;;16.00;100.00;101177.91;5082400;28;20048;-78
2021/07/10 02:27:58;;;;;;;78.93;72.43;;;;;;;16.15;100.00;101193.53;5089718;28;20419;-79
2021/07/10 02:30:28;;;;;;;91.57;84.55;;;;;;;16.15;100.00;101185.50;5080191;28;20044;-78
2021/07/10 02:32:56;;;;;;;81.20;74.75;;;;;;;16.41;100.00;101194.97;5085798;28;20048;-78
2021/07/10 02:35:22;;;;;;;76.38;69.88;;;;;;;16.18;100.00;101197.63;5090023;28;20117;-78
2021/07/10 02:37:49;;;;;;;93.10;85.40;;;;;;;16.10;100.00;101195.31;5082070;28;20089;-78
2021/07/10 02:40:19;;;;;;;95.13;87.25;;;;;;;15.84;100.00;101202.69;5078293;28;20053;-78
2021/07/10 02:42:48;;;;;;;81.78;75.25;;;;;;;16.15;100.00;101198.91;5074546;28;20123;-79
2021/07/10 02:45:16;;;;;;;85.85;78.95;;;;;;;16.03;100.00;101201.56;5081649;28;20053;-78
2021/07/10 02:47:43;;;;;;;83.35;76.50;;;;;;;16.17;100.00;101212.91;5081938;28;20056;-78
2021/07/10 02:50:13;;;;;;;76.40;70.32;;;;;;;16.15;100.00;101209.63;5082209;28;20476;-78
2021/07/10 02:52:41;;;;;;;78.00;71.40;;;;;;;15.62;100.00;101220.31;5081296;28;20484;-78
2021/07/10 02:55:09;;;;;;;90.22;82.28;;;;;;;16.01;100.00;101217.06;5081045;28;20117;-78
2021/07/10 02:57:36;;;;;;;76.55;69.90;;;;;;;16.01;100.00;101222.44;5073688;28;20048;-78
2021/07/10 03:00:06;;;;;;;81.53;74.72;;;;;;;16.05;100.00;101219.28;5081887;28;20462;-78
2021/07/10 03:02:39;;;;;;;90.32;81.97;;;;;;;15.93;100.00;101220.06;5070377;28;20052;-78
2021/07/10 03:05:08;;;;;;;105.03;97.55;;;;;;;15.97;100.00;101210.53;5083871;28;20098;-79
2021/07/10 03:07:35;;;;;;;92.28;85.20;;;;;;;15.86;100.00;101214.00;5081980;28;20097;-78
2021/07/10 03:10:02;;;;;;;98.90;91.45;;;;;;;16.07;100.00;101207.31;5080248;28;20366;-78
2021/07/10 03:12:29;;;;;;;79.25;72.80;;;;;;;15.92;100.00;101214.97;5077584;28;20542;-78
2021/07/10 03:14:55;;;;;;;93.40;86.00;;;;;;;15.91;100.00;101205.28;5080815;28;20048;-78
2021/07/10 03:17:23;;;;;;;88.35;80.95;;;;;;;15.72;100.00;101196.50;5074713;28;20116;-78
2021/07/10 03:19:50;;;;;;;99.93;92.18;;;;;;;15.74;100.00;101210.47;5080321;28;20060;-77
2021/07/10 03:22:17;;;;;;;97.82;90.05;;;;;;;15.92;100.00;101214.97;5080562;28;20040;-78
2021/07/10 03:24:44;;;;;;;95.80;87.80;;;;;;;16.11;100.00;101199.63;5082026;28;20044;-78
2021/07/10 03:27:10;;;;;;;88.50;81.53;;;;;;;16.23;100.00;101201.25;5077173;28;20129;-78
2021/07/10 03:29:37;;;;;;;87.97;81.00;;;;;;;16.26;100.00;101200.78;5079832;28;20052;-78
2021/07/10 03:32:05;;;;;;;78.32;71.93;;;;;;;16.12;100.00;101204.72;5079901;28;20094;-78
2021/07/10 03:34:33;;;;;;;104.35;96.25;;;;;;;16.16;100.00;101210.47;5086931;28;20075;-77
2021/07/10 03:37:00;;;;;;;112.03;103.38;;;;;;;15.76;100.00;101209.22;5082763;28;20529;-78
2021/07/10 03:39:26;;;;;;;110.80;102.68;;;;;;;16.32;100.00;101206.28;5079620;28;20052;-78
2021/07/10 03:41:53;;;;;;;108.10;100.03;;;;;;;16.39;100.00;101206.97;5088008;28;20048;-78
2021/07/10 03:44:20;;;;;;;101.63;93.95;;;;;;;16.52;100.00;101204.09;5079459;28;20056;-79
2021/07/10 03:46:47;;;;;;;84.85;78.45;;;;;;;16.61;100.00;101205.34;5077025;28;20098;-78
2021/07/10 03:49:14;;;;;;;86.30;79.53;;;;;;;16.59;100.00;101206.63;5081473;28;20065;-78
2021/07/10 03:51:42;;;;;;;99.82;92.22;;;;;;;16.56;100.00;101196.38;5083719;28;20069;-78
2021/07/10 03:54:09;;;;;;;91.05;84.68;;;;;;;16.60;100.00;101208.25;5083274;28;20051;-78
2021/07/10 03:56:36;;;;;;;86.25;80.15;;;;;;;16.79;100.00;101206.28;5084972;28;20529;-78
2021/07/10 03:59:03;;;;;;;85.53;79.47;;;;;;;16.91;100.00;101212.44;5085832;28;20044;-78
2021/07/10 04:01:30;;;;;;;82.68;76.47;;;;;;;17.04;100.00;101203.34;5076740;28;20047;-78
2021/07/10 04:03:56;;;;;;;78.05;72.05;;;;;;;17.14;100.00;101196.31;5096195;28;20112;-78
2021/07/10 04:06:23;;;;;;;95.35;88.53;;;;;;;17.08;100.00;101199.13;5082203;28;20078;-78
2021/07/10 04:08:52;;;;;;;84.95;78.63;;;;;;;17.35;100.00;101199.41;5079495;28;20044;-78
2021/07/10 04:11:18;;;;;;;83.97;77.88;;;;;;;17.50;100.00;101193.50;5082487;28;20060;-79
2021/07/10 04:13:45;;;;;;;77.25;71.05;;;;;;;17.55;100.00;101197.09;5083483;28;20110;-78
2021/07/10 04:16:12;;;;;;;215.25;200.65;;;;;;;22.09;100.00;101199.72;5081370;28;20051;-80
2021/07/10 04:18:39;;;;;;;54.22;49.92;;;;;;;19.66;100.00;101185.59;5086115;28;20047;-79
2021/07/10 04:21:06;;;;;;;56.97;52.45;;;;;;;18.33;100.00;101194.66;5080478;28;20044;-78
2021/07/10 04:23:33;;;;;;;68.07;62.70;;;;;;;18.26;100.00;101197.53;5083880;28;20067;-78
2021/07/10 04:26:01;;;;;;;79.22;73.10;;;;;;;18.10;100.00;101189.47;5083280;28;20507;-79
2021/07/10 04:28:28;;;;;;;73.65;68.10;;;;;;;17.89;100.00;101183.75;5087037;28;20044;-79
2021/07/10 04:30:54;;;;;;;70.60;65.20;;;;;;;18.06;100.00;101184.59;5085536;28;20048;-78
2021/07/10 04:33:21;;;;;;;69.35;63.42;;;;;;;18.34;100.00;101198.19;5084003;28;20473;-78
2021/07/10 04:35:48;;;;;;;64.25;59.17;;;;;;;18.52;100.00;101190.66;5087012;28;20476;-78
2021/07/10 04:38:15;;;;;;;71.20;65.63;;;;;;;18.62;100.00;101199.94;5088646;28;20073;-78
2021/07/10 04:40:42;;;;;;;74.75;69.57;;;;;;;18.67;100.00;101195.44;5082537;28;20045;-78
2021/07/10 04:43:11;;;;;;;74.47;68.75;;;;;;;18.63;100.00;101196.97;5088614;28;20483;-77
2021/07/10 04:45:39;;;;;;;76.00;69.88;;;;;;;18.73;100.00;101204.44;5088893;28;20110;-79
2021/07/10 04:48:06;;;;;;;70.60;65.07;;;;;;;18.92;100.00;101200.38;5087974;28;20053;-78
2021/07/10 04:50:33;;;;;;;57.45;52.95;;;;;;;18.99;100.00;101197.47;5088889;28;20060;-78
2021/07/10 04:53:01;;;;;;;54.75;50.67;;;;;;;19.03;100.00;101195.09;5085193;28;20117;-78
2021/07/10 04:55:27;;;;;;;66.05;61.45;;;;;;;19.17;100.00;101199.06;5084970;28;20068;-79
2021/07/10 04:57:54;;;;;;;60.88;56.60;;;;;;;19.29;100.00;101201.59;5092908;28;20431;-78
2021/07/10 05:00:23;;;;;;;55.28;51.38;;;;;;;19.37;100.00;101204.69;5083166;28;20052;-78
2021/07/10 05:02:49;;;;;;;60.78;56.63;;;;;;;19.83;100.00;101199.78;5075826;28;20148;-78
2021/07/10 05:05:28;;;;;;;53.65;49.53;;;;;;;19.59;100.00;101199.25;5087987;28;20056;-78
2021/07/10 05:07:55;;;;;;;52.95;48.78;;;;;;;19.70;100.00;101196.66;5084695;28;20063;-77
2021/07/10 05:10:22;;;;;;;59.75;55.75;;;;;;;19.88;100.00;101196.31;5080505;28;20060;-79
2021/07/10 05:12:49;;;;;;;59.42;55.63;;;;;;;20.02;100.00;101194.81;5089571;28;20536;-78
2021/07/10 05:15:17;;;;;;;57.60;53.90;;;;;;;20.02;100.00;101192.09;5081727;28;20049;-78
2021/07/10 05:17:46;;;;;;;47.78;44.58;;;;;;;20.12;100.00;101197.59;5081545;28;20548;-78
2021/07/10 05:20:14;;;;;;;49.85;45.85;;;;;;;20.47;100.00;101200.78;5082741;28;20052;-77
2021/07/10 05:22:41;;;;;;;48.67;44.88;;;;;;;20.44;100.00;101201.31;5083601;28;20045;-78
2021/07/10 05:25:10;;;;;;;49.35;45.85;;;;;;;20.45;100.00;101200.22;5084752;28;20064;-79
2021/07/10 05:27:37;;;;;;;51.55;47.42;;;;;;;20.65;100.00;101199.59;5089290;28;20546;-78
2021/07/10 05:30:07;;;;;;;48.28;44.67;;;;;;;20.86;100.00;101198.63;5080706;28;20377;-80
2021/07/10 05:32:34;;;;;;;51.92;47.85;;;;;;;21.00;100.00;101194.38;5079645;28;20052;-79
2021/07/10 05:35:03;;;;;;;45.70;41.95;;;;;;;21.04;100.00;101195.44;5023644;28;20057;-79
2021/07/10 05:37:30;;;;;;;49.38;45.67;;;;;;;21.09;100.00;101191.13;4999718;28;20121;-80
2021/07/10 05:39:57;;;;;;;44.97;42.13;;;;;;;21.24;100.00;101192.03;5007617;28;20054;-79
2021/07/10 05:42:24;;;;;;;42.33;39.63;;;;;;;21.46;100.00;101191.03;5009463;28;20545;-79
2021/07/10 05:44:50;;;;;;;45.25;42.65;;;;;;;21.86;100.00;101184.84;5009881;28;20137;-79
2021/07/10 05:47:18;;;;;;;43.70;40.63;;;;;;;22.03;100.00;101189.16;5004389;28;20046;-79
2021/07/10 05:49:45;;;;;;;60.10;55.75;;;;;;;24.76;100.00;101199.06;5002892;28;20054;-77
2021/07/10 05:52:14;;;;;;;47.88;44.65;;;;;;;25.18;100.00;101206.47;5003676;28;20482;-77
2021/07/10 05:54:41;;;;;;;35.55;33.05;;;;;;;25.28;100.00;101210.94;5013076;28;20077;-76
2021/07/10 05:57:08;;;;;;;35.80;33.13;;;;;;;24.96;100.00;101208.88;5015304;28;20053;-78
2021/07/10 05:59:35;;;;;;;34.88;32.58;;;;;;;24.53;100.00;101201.47;5003176;28;20050;-80
2021/07/10 06:02:06;;;;;;;31.27;29.35;;;;;;;24.49;100.00;101199.66;5009145;28;20046;-77
2021/07/10 06:04:33;;;;;;;37.33;35.13;;;;;;;25.13;100.00;101207.31;4986176;28;20058;-79
2021/07/10 06:07:00;;;;;;;41.80;38.92;;;;;;;25.21;100.00;101205.88;4982311;28;20142;-77
2021/07/10 06:09:29;;;;;;;35.17;32.83;;;;;;;24.76;100.00;101218.09;4983398;28;20475;-77
2021/07/10 06:11:56;;;;;;;30.98;29.17;;;;;;;24.59;100.00;101204.94;4979106;28;20131;-78
2021/07/10 06:14:23;;;;;;;30.38;28.27;;;;;;;24.79;100.00;101209.34;4982641;28;20054;-77
2021/07/10 06:16:50;;;;;;;31.15;29.20;;;;;;;24.75;100.00;101211.84;4981681;28;20124;-78
2021/07/10 06:19:17;;;;;;;29.63;27.90;;;;;;;24.54;100.00;101208.53;4985619;28;20047;-79
2021/07/10 06:21:43;;;;;;;32.85;30.92;;;;;;;25.08;100.00;101214.69;4979113;28;20055;-80
2021/07/10 06:24:10;;;;;;;32.58;30.67;;;;;;;25.19;100.00;101216.22;4979665;28;20061;-79
2021/07/10 06:26:38;;;;;;;34.67;32.47;;;;;;;25.16;100.00;101219.53;4987840;28;20056;-80
2021/07/10 06:29:06;;;;;;;29.20;27.50;;;;;;;25.09;100.00;101213.63;4986868;28;20826;-80
2021/07/10 06:31:33;;;;;;;33.63;31.73;;;;;;;25.45;100.00;101221.31;4982970;28;20066;-79
2021/07/10 06:34:00;;;;;;;34.03;32.13;;;;;;;25.35;100.00;101217.63;4984877;28;20058;-77
2021/07/10 06:36:27;;;;;;;31.10;29.00;;;;;;;25.18;100.00;101211.09;4984914;28;20137;-78
2021/07/10 06:38:54;;;;;;;35.63;32.67;;;;;;;25.19;100.00;101218.94;4987518;28;20104;-79
2021/07/10 06:41:21;;;;;;;29.58;27.27;;;;;;;25.21;100.00;101211.31;4982724;28;20106;-77
2021/07/10 06:43:50;;;;;;;32.40;29.80;;;;;;;25.41;100.00;101209.41;4982048;28;20053;-77
2021/07/10 06:46:16;;;;;;;36.50;33.88;;;;;;;25.39;100.00;101212.44;4982322;28;20121;-77
2021/07/10 06:48:43;;;;;;;37.15;33.88;;;;;;;25.79;100.00;101204.75;4983362;28;20050;-79
2021/07/10 06:51:10;;;;;;;34.70;32.30;;;;;;;25.86;100.00;101210.66;4982755;28;20113;-80
2021/07/10 06:53:38;;;;;;;53.42;43.47;;;;;;;25.84;100.00;101209.31;4984389;28;20059;-79
2021/07/10 06:56:06;;;;;;;32.05;30.25;;;;;;;25.64;100.00;101205.00;4985004;28;20511;-78
2021/07/10 06:58:33;;;;;;;39.40;36.03;;;;;;;25.87;100.00;101209.56;4986929;28;20124;-78
2021/07/10 07:01:01;;;;;;;31.40;28.92;;;;;;;25.80;94.62;101207.16;4985463;28;20455;-78
2021/07/10 07:03:27;;;;;;;33.47;30.70;;;;;;;25.96;100.00;101206.94;4995538;28;20112;-82
2021/07/10 07:05:54;;;;;;;46.13;41.13;;;;;;;26.06;100.00;101206.00;5000731;28;20116;-82
2021/07/10 07:08:21;;;;;;;29.98;27.65;;;;;;;26.15;100.00;101209.63;5009213;28;20474;-78
2021/07/10 07:10:48;;;;;;;30.33;28.35;;;;;;;26.20;99.93;101201.38;5009092;28;20049;-80
2021/07/10 07:13:15;;;;;;;31.85;29.35;;;;;;;26.45;100.00;101206.38;5008959;28;20061;-81
2021/07/10 07:15:41;;;;;;;114.15;67.72;;;;;;;26.48;100.00;101205.75;5000902;28;20085;-79
2021/07/10 07:18:10;;;;;;;27.52;25.75;;;;;;;26.63;92.28;101201.16;5000258;28;20050;-80
2021/07/10 07:20:37;;;;;;;27.85;25.95;;;;;;;26.41;100.00;101201.81;4993973;28;20079;-81
2021/07/10 07:23:04;;;;;;;27.42;25.83;;;;;;;26.48;100.00;101207.69;5010759;28;20050;-79
2021/07/10 07:25:31;;;;;;;33.65;30.77;;;;;;;26.43;94.31;101194.16;5001445;28;20042;-79
2021/07/10 07:27:58;;;;;;;30.58;28.48;;;;;;;26.65;97.79;101198.94;5007464;28;20100;-79
2021/07/10 07:30:25;;;;;;;27.58;25.75;;;;;;;26.89;99.48;101194.06;5001893;28;20104;-78
2021/07/10 07:32:51;;;;;;;26.13;24.23;;;;;;;26.73;93.04;101195.50;5009673;28;20066;-77
2021/07/10 07:35:20;;;;;;;25.67;24.20;;;;;;;26.97;89.25;101199.94;5008264;28;20546;-77
2021/07/10 07:37:47;;;;;;;25.67;23.90;;;;;;;27.00;87.51;101200.13;5006111;28;20541;-77
2021/07/10 07:40:16;;;;;;;29.10;27.05;;;;;;;26.87;88.13;101190.88;5003645;28;20096;-77
2021/07/10 07:42:43;;;;;;;27.70;25.90;;;;;;;26.91;89.81;101196.50;5008702;28;20112;-76
2021/07/10 07:45:11;;;;;;;32.97;29.92;;;;;;;27.36;94.26;101191.19;5000107;28;20115;-77
2021/07/10 07:47:39;;;;;;;27.88;26.00;;;;;;;27.34;100.00;101186.03;5001079;28;20380;-81
2021/07/10 07:50:07;;;;;;;28.60;26.95;;;;;;;27.31;100.00;101194.03;5003429;28;20119;-77
2021/07/10 07:52:36;;;;;;;30.17;27.98;;;;;;;27.51;95.30;101190.03;5007453;28;20473;-79
2021/07/10 07:55:06;;;;;;;27.00;25.13;;;;;;;27.19;91.32;101189.13;5007100;28;20065;-81
2021/07/10 07:57:33;;;;;;;27.90;26.40;;;;;;;27.41;97.33;101188.34;5001557;28;20143;-78
2021/07/10 08:00:00;;;;;;;31.83;29.05;;;;;;;27.43;88.54;101193.50;5002202;28;20508;-78
2021/07/10 08:02:26;;;;;;;27.75;25.88;;;;;;;27.31;86.29;101183.94;5004956;28;20548;-79
2021/07/10 08:04:53;;;;;;;28.17;26.33;;;;;;;27.81;92.14;101191.25;5005544;28;20042;-77
2021/07/10 08:07:20;;;;;;;28.58;26.98;;;;;;;27.62;88.76;101194.94;5001043;28;20441;-78
2021/07/10 08:09:48;;;;;;;25.15;23.80;;;;;;;27.67;97.33;101195.94;5023703;28;20046;-78
2021/07/10 08:12:15;;;;;;;25.02;23.42;;;;;;;27.88;93.08;101185.38;5007008;28;20120;-78
2021/07/10 08:14:42;;;;;;;23.90;22.30;;;;;;;27.44;87.81;101193.19;5010308;28;20120;-79
2021/07/10 08:17:09;;;;;;;25.80;23.35;;;;;;;27.47;84.15;101194.50;5004661;28;20045;-80
2021/07/10 08:19:36;;;;;;;25.50;24.00;;;;;;;27.59;84.27;101192.00;5001155;28;20050;-80
2021/07/10 08:22:03;;;;;;;27.30;25.67;;;;;;;27.95;89.03;101191.19;5008839;28;20499;-78
2021/07/10 08:24:38;;;;;;;27.55;25.85;;;;;;;28.02;99.11;101189.63;5001967;28;20065;-78
2021/07/10 08:27:07;;;;;;;25.38;23.77;;;;;;;27.81;81.75;101186.59;5007523;28;20458;-77
2021/07/10 08:29:34;;;;;;;29.35;27.67;;;;;;;28.06;87.97;101187.88;5004960;28;20563;-79
2021/07/10 08:32:01;;;;;;;29.20;26.90;;;;;;;28.07;89.14;101188.69;5005514;28;20065;-80
2021/07/10 08:34:28;;;;;;;28.45;26.88;;;;;;;28.15;93.04;101187.13;4997033;28;20458;-78
2021/07/10 08:36:55;;;;;;;25.33;23.85;;;;;;;28.22;100.00;101174.63;5001639;28;20107;-80
2021/07/10 08:39:21;;;;;;;26.98;25.17;;;;;;;28.54;97.68;101184.44;5001621;28;20054;-77
2021/07/10 08:41:49;;;;;;;24.85;23.25;;;;;;;28.63;90.13;101180.94;5011358;28;20116;-78
2021/07/10 08:44:18;;;;;;;27.52;25.60;;;;;;;28.37;93.48;101178.88;5000017;28;20117;-80
2021/07/10 08:46:47;;;;;;;28.67;26.88;;;;;;;28.81;96.86;101176.34;4999747;28;20478;-78
2021/07/10 08:49:14;;;;;;;28.33;26.63;;;;;;;28.73;88.79;101183.38;5001754;28;20136;-80
2021/07/10 08:51:45;;;;;;;26.15;24.17;;;;;;;28.57;78.90;101185.75;5005361;28;20057;-79
2021/07/10 08:54:12;;;;;;;27.10;25.38;;;;;;;28.49;80.06;101181.03;5001034;28;20145;-78
2021/07/10 08:56:39;;;;;;;26.50;24.73;;;;;;;28.59;75.20;101183.47;5005546;28;20053;-77
2021/07/10 08:59:08;;;;;;;29.45;27.02;;;;;;;28.54;81.07;101178.97;4997722;28;20054;-79
2021/07/10 09:01:36;;;;;;;30.30;28.55;;;;;;;28.56;84.04;101173.19;5006752;28;20112;-78
2021/07/10 09:04:09;;;;;;;29.00;26.88;;;;;;;28.90;71.88;101166.22;4998989;28;20070;-79
2021/07/10 09:06:42;;;;;;;25.73;24.13;;;;;;;28.81;75.21;101173.59;5001964;28;20050;-78
2021/07/10 09:09:10;;;;;;;25.58;23.83;;;;;;;28.93;83.03;101168.31;5008964;28;20483;-80
2021/07/10 09:11:37;;;;;;;27.10;24.95;;;;;;;29.11;87.13;101160.94;5009960;28;20569;-79
2021/07/10 09:14:04;;;;;;;30.98;28.98;;;;;;;27.70;96.95;101178.94;5004807;28;20060;-80
2021/07/10 09:16:32;;;;;;;27.85;25.98;;;;;;;28.13;97.68;101171.03;5005089;28;20515;-80
2021/07/10 09:19:02;;;;;;;26.77;24.88;;;;;;;28.27;100.00;101166.31;5006948;28;20070;-79
2021/07/10 09:21:41;;;;;;;29.45;27.38;;;;;;;27.85;93.81;101173.16;5004371;28;20050;-78
2021/07/10 09:24:10;;;;;;;38.72;35.83;;;;;;;27.89;97.68;101176.06;5009557;28;20510;-75
2021/07/10 09:26:42;;;;;;;36.58;33.97;;;;;;;27.35;95.97;101170.47;5008845;28;20046;-81
2021/07/10 09:29:11;;;;;;;29.15;27.25;;;;;;;27.61;95.06;101162.50;5010053;28;20042;-76
2021/07/10 09:31:40;;;;;;;38.72;35.20;;;;;;;28.79;95.56;101157.50;5010708;28;20046;-78
2021/07/10 09:34:13;;;;;;;27.98;26.35;;;;;;;29.25;93.05;101169.00;5007088;28;20057;-76
2021/07/10 09:36:58;;;;;;;27.05;24.80;;;;;;;29.58;82.32;101166.59;5004855;28;20491;-77
2021/07/10 09:39:27;;;;;;;29.25;27.15;;;;;;;29.65;81.32;101162.28;5006204;28;20129;-78
2021/07/10 09:41:55;;;;;;;36.08;33.67;;;;;;;29.90;80.18;101163.34;5005152;28;20064;-76
2021/07/10 09:44:21;;;;;;;28.10;26.27;;;;;;;29.96;82.86;101157.69;5002633;28;20053;-78
2021/07/10 09:46:48;;;;;;;29.58;27.33;;;;;;;29.76;74.99;101149.03;5012871;28;20050;-78
2021/07/10 09:49:29;;;;;;;30.15;27.95;;;;;;;30.15;78.74;101152.63;5005521;28;20050;-79
2021/07/10 09:52:07;;;;;;;24.98;23.10;;;;;;;30.16;74.98;101151.50;5011963;28;20140;-78
2021/07/10 09:54:36;;;;;;;25.85;24.25;;;;;;;30.04;76.49;101156.84;5001082;28;20054;-80
2021/07/10 09:57:14;;;;;;;25.33;23.60;;;;;;;29.92;57.77;101149.31;5018038;28;20110;-76
2021/07/10 09:59:43;;;;;;;25.23;23.23;;;;;;;30.13;84.09;101144.72;5002756;28;20054;-78
2021/07/10 10:02:13;;;;;;;25.88;23.42;;;;;;;29.76;73.26;101145.50;5010799;28;20061;-76
2021/07/10 10:04:42;;;;;;;24.35;22.65;;;;;;;30.13;62.05;101135.72;5007591;28;20494;-76
2021/07/10 10:07:12;;;;;;;25.10;23.25;;;;;;;29.92;70.10;101138.38;5005688;28;20041;-78
2021/07/10 10:09:39;;;;;;;24.85;23.25;;;;;;;30.41;61.86;101132.56;5008174;28;20117;-78
2021/07/10 10:12:09;;;;;;;24.58;22.77;;;;;;;30.95;80.80;101139.03;5015693;28;20379;-78
2021/07/10 10:14:41;;;;;;;24.95;23.25;;;;;;;30.65;58.79;101138.22;5011586;28;20112;-79
2021/07/10 10:17:08;;;;;;;23.38;21.42;;;;;;;30.51;60.30;101138.47;5004471;28;20058;-76
2021/07/10 10:19:36;;;;;;;24.92;23.27;;;;;;;30.61;62.30;101134.56;5004074;28;20116;-77
2021/07/10 10:22:07;;;;;;;26.25;24.40;;;;;;;30.53;58.65;101132.66;5011537;28;20136;-76
2021/07/10 10:24:35;;;;;;;25.92;24.08;;;;;;;30.70;59.13;101124.34;5010127;28;20049;-77
2021/07/10 10:27:03;;;;;;;24.38;22.67;;;;;;;30.32;57.96;101136.16;5010055;28;20053;-76
2021/07/10 10:29:30;;;;;;;25.80;24.17;;;;;;;30.76;72.12;101128.50;5002936;28;20057;-79
2021/07/10 10:31:59;;;;;;;25.42;23.63;;;;;;;30.46;48.74;101124.97;5006901;28;20482;-79
2021/07/10 10:34:27;;;;;;;28.27;26.67;;;;;;;30.91;71.85;101124.38;5004461;28;20073;-78
2021/07/10 10:36:57;;;;;;;24.80;23.30;;;;;;;30.46;52.08;101130.44;4999070;28;20490;-78
2021/07/10 10:39:28;;;;;;;26.75;25.15;;;;;;;30.26;65.48;101129.25;5006272;28;20399;-78
2021/07/10 10:41:59;;;;;;;27.00;25.17;;;;;;;30.46;81.07;101124.97;5012362;28;20549;-78
2021/07/10 10:44:28;;;;;;;23.77;22.08;;;;;;;30.19;73.58;101122.66;5001273;28;20066;-79
2021/07/10 10:46:56;;;;;;;24.70;23.20;;;;;;;30.42;64.00;101118.53;5007155;28;20475;-78
2021/07/10 10:49:34;;;;;;;26.60;25.00;;;;;;;30.54;62.15;101118.63;5007249;28;20099;-79
2021/07/10 10:52:18;;;;;;;25.95;24.45;;;;;;;30.65;62.36;101116.28;5003749;28;20061;-78
2021/07/10 10:54:49;;;;;;;26.95;25.05;;;;;;;30.75;66.52;101123.34;4999218;28;20108;-79
2021/07/10 10:57:17;;;;;;;27.48;25.48;;;;;;;30.44;53.77;101118.19;5010204;28;20274;-78
2021/07/10 10:59:45;;;;;;;26.58;24.75;;;;;;;30.42;61.25;101117.75;5002402;28;20054;-78
2021/07/10 11:02:41;;;;;;;27.45;25.50;;;;;;;30.26;70.24;101120.22;5007632;28;20054;-79
2021/07/10 11:05:11;;;;;;;25.13;22.98;;;;;;;30.73;52.78;101117.38;4963696;28;20083;-82
2021/07/10 11:07:38;;;;;;;28.35;26.65;;;;;;;30.43;53.59;101102.91;4972183;28;20080;-79
2021/07/10 11:10:12;;;;;;;25.02;23.10;;;;;;;30.50;55.34;101104.00;4978926;28;20061;-80
2021/07/10 11:12:57;;;;;;;24.45;22.45;;;;;;;30.74;52.63;101108.84;4955348;28;20502;-79